createdAt,value
2022-11-04T00:04:50.886Z,12.28
2022-11-04T00:10:22.181Z,12.34
2022-11-04T00:15:53.859Z,12.46
2022-11-04T00:21:25.622Z,12.36
2022-11-04T00:27:01.739Z,12.34
2022-11-04T00:32:33.418Z,12.4
2022-11-04T00:38:05.303Z,12.38
2022-11-04T00:43:36.855Z,12.3
2022-11-04T00:49:08.623Z,12.18
2022-11-04T00:54:40.336Z,12.08
2022-11-04T01:00:12.072Z,12.19
2022-11-04T01:05:43.815Z,12.17
2022-11-04T01:11:15.508Z,11.97
2022-11-04T01:16:47.254Z,12.14
2022-11-04T01:22:18.956Z,12.06
2022-11-04T01:27:55.051Z,12.17
2022-11-04T01:33:26.779Z,12.19
2022-11-04T01:38:58.694Z,12.27
2022-11-04T01:44:30.194Z,12.03
2022-11-04T01:50:01.993Z,11.77
2022-11-04T01:55:33.707Z,11.92
2022-11-04T02:01:05.468Z,12.09
2022-11-04T02:06:37.170Z,12.05
2022-11-04T02:12:08.886Z,12.0
2022-11-04T02:17:40.595Z,11.81
2022-11-04T02:23:12.363Z,11.6
2022-11-04T02:28:48.637Z,11.61
2022-11-04T02:34:20.156Z,11.56
2022-11-04T02:39:52.431Z,11.36
2022-11-04T02:45:23.963Z,11.34
2022-11-04T02:50:55.321Z,11.31
2022-11-04T02:56:27.341Z,11.35
2022-11-04T03:01:59.222Z,11.42
2022-11-04T03:07:30.622Z,11.29
2022-11-04T03:13:02.547Z,11.52
2022-11-04T03:18:34.256Z,11.53
2022-11-04T03:24:05.906Z,11.48
2022-11-04T03:29:42.130Z,11.6
2022-11-04T03:35:13.692Z,11.77
2022-11-04T03:40:45.521Z,11.82
2022-11-04T03:46:17.149Z,11.74
2022-11-04T03:51:48.958Z,11.7
2022-11-04T03:57:20.455Z,11.6
2022-11-04T04:02:52.146Z,11.54
2022-11-04T04:08:23.870Z,11.41
2022-11-04T04:13:55.545Z,11.41
2022-11-04T04:19:27.584Z,11.44
2022-11-04T04:24:59.034Z,11.46
2022-11-04T04:30:37.386Z,11.32
2022-11-04T04:36:08.899Z,11.32
2022-11-04T04:41:41.171Z,11.22
2022-11-04T04:47:12.323Z,11.23
2022-11-04T04:52:44.015Z,11.21
2022-11-04T04:58:15.774Z,11.25
2022-11-04T05:03:47.469Z,11.16
2022-11-04T05:09:19.192Z,11.14
2022-11-04T05:14:50.938Z,11.06
2022-11-04T05:20:22.971Z,10.99
2022-11-04T05:25:54.321Z,10.9
2022-11-04T05:31:30.762Z,10.92
2022-11-04T05:37:02.421Z,10.97
2022-11-04T05:42:33.957Z,10.92
2022-11-04T05:48:05.652Z,10.85
2022-11-04T05:53:37.406Z,10.83
2022-11-04T05:59:09.142Z,10.89
2022-11-04T06:04:40.901Z,10.89
2022-11-04T06:10:12.538Z,10.82
2022-11-04T06:15:44.264Z,10.82
2022-11-04T06:21:16.027Z,10.72
2022-11-04T06:26:47.710Z,10.78
2022-11-04T06:32:25.835Z,10.76
2022-11-04T06:37:57.599Z,10.82
2022-11-04T06:43:29.592Z,10.73
2022-11-04T06:49:01.096Z,10.93
2022-11-04T06:54:32.760Z,10.91
2022-11-04T07:00:04.550Z,10.9
2022-11-04T07:05:36.178Z,10.86
2022-11-04T07:11:07.954Z,10.78
2022-11-04T07:16:39.673Z,10.63
2022-11-04T07:22:11.381Z,10.78
2022-11-04T07:27:43.147Z,10.86
2022-11-04T07:33:19.206Z,11.08
2022-11-04T07:38:51.040Z,11.13
2022-11-04T07:44:23.421Z,10.94
2022-11-04T07:49:54.385Z,10.96
2022-11-04T07:55:26.120Z,11.06
2022-11-04T08:00:57.887Z,11.02
2022-11-04T08:06:30.104Z,11.03
2022-11-04T08:12:01.301Z,11.03
2022-11-04T08:17:32.990Z,11.06
2022-11-04T08:23:04.752Z,11.27
2022-11-04T08:28:36.664Z,11.57
2022-11-04T08:34:12.551Z,11.51
2022-11-04T08:39:44.303Z,11.48
2022-11-04T08:45:16.019Z,11.59
2022-11-04T08:50:47.720Z,11.61
2022-11-04T08:56:19.540Z,11.58
2022-11-04T09:01:51.152Z,11.53
2022-11-04T09:07:23.099Z,11.65
2022-11-04T09:12:54.631Z,11.75
2022-11-04T09:18:26.349Z,11.94
2022-11-04T09:23:58.259Z,11.71
2022-11-04T09:29:29.830Z,11.89
2022-11-04T09:35:05.952Z,11.95
2022-11-04T09:40:37.764Z,11.98
2022-11-04T09:46:09.325Z,11.86
2022-11-04T09:51:54.113Z,12.09
2022-11-04T09:57:12.989Z,12.28
2022-11-04T10:02:44.834Z,12.32
2022-11-04T10:08:16.529Z,12.48
2022-11-04T10:13:47.994Z,12.51
2022-11-04T10:19:20.003Z,12.6
2022-11-04T10:24:51.521Z,13.02
2022-11-04T10:30:23.316Z,12.63
2022-11-04T10:35:59.488Z,12.92
2022-11-04T10:41:31.280Z,12.82
2022-11-04T10:47:03.055Z,13.0
2022-11-04T10:52:34.834Z,13.4
2022-11-04T10:58:06.565Z,12.93
2022-11-04T11:03:39.570Z,13.32
2022-11-04T11:09:10.963Z,13.04
2022-11-04T11:14:42.367Z,13.05
2022-11-04T11:20:14.267Z,13.08
2022-11-04T11:25:46.021Z,13.17
2022-11-04T11:31:17.648Z,13.25
2022-11-04T11:36:53.928Z,13.21
2022-11-04T11:42:25.839Z,13.22
2022-11-04T11:47:57.436Z,13.28
2022-11-04T11:53:29.168Z,13.28
2022-11-04T12:10:06.991Z,13.25
2022-11-04T12:15:35.672Z,13.42
2022-11-04T12:21:07.613Z,13.38
2022-11-04T12:26:39.868Z,13.59
2022-11-04T12:32:10.863Z,13.39
2022-11-04T12:37:47.019Z,13.7
2022-11-04T12:43:18.700Z,13.51
2022-11-04T12:48:54.437Z,13.59
2022-11-04T12:54:22.386Z,13.78
2022-11-04T12:59:53.795Z,13.61
2022-11-04T13:05:26.398Z,13.72
2022-11-04T13:10:57.286Z,13.84
2022-11-04T13:16:29.023Z,13.83
2022-11-04T13:22:00.974Z,13.9
2022-11-04T13:27:32.493Z,13.65
2022-11-04T13:33:04.191Z,13.44
2022-11-04T13:38:40.408Z,13.6
2022-11-04T13:44:12.032Z,13.54
2022-11-04T13:49:43.791Z,13.14
2022-11-04T13:55:15.466Z,13.04
2022-11-04T14:00:47.180Z,12.89
2022-11-04T14:06:18.928Z,13.11
2022-11-04T14:11:50.858Z,12.92
2022-11-04T14:17:22.388Z,12.57
2022-11-04T14:22:54.858Z,12.76
2022-11-04T14:28:25.825Z,12.92
2022-11-04T14:33:57.853Z,12.94
2022-11-04T14:39:33.668Z,12.93
2022-11-04T14:45:05.387Z,12.32
2022-11-04T14:50:37.113Z,12.08
2022-11-04T14:56:09.138Z,12.51
2022-11-04T15:01:40.636Z,12.49
2022-11-04T15:07:12.298Z,12.56
2022-11-04T15:12:43.988Z,12.56
2022-11-04T15:18:15.962Z,12.45
2022-11-04T15:23:47.462Z,12.28
2022-11-04T15:29:19.127Z,12.38
2022-11-04T15:34:51.078Z,12.43
2022-11-04T15:40:28.981Z,12.28
2022-11-04T15:46:00.704Z,12.4
2022-11-04T15:51:33.155Z,12.23
2022-11-04T15:57:04.444Z,12.17
2022-11-04T16:02:36.080Z,12.28
2022-11-04T16:08:07.702Z,12.34
2022-11-04T16:13:39.397Z,12.21
2022-11-04T16:19:11.097Z,12.34
2022-11-04T16:24:42.844Z,12.23
2022-11-04T16:30:15.061Z,12.17
2022-11-04T16:35:46.323Z,12.17
2022-11-04T16:41:22.394Z,12.27
2022-11-04T16:46:54.958Z,12.17
2022-11-04T16:52:26.943Z,12.27
2022-11-04T16:57:58.418Z,12.19
2022-11-04T17:03:30.119Z,12.16
2022-11-04T17:09:01.849Z,11.99
2022-11-04T17:14:33.571Z,12.0
2022-11-04T17:20:05.442Z,11.92
2022-11-04T17:25:37.238Z,12.07
2022-11-04T17:31:08.775Z,12.04
2022-11-04T17:36:40.811Z,11.66
2022-11-04T17:42:17.139Z,11.9
2022-11-04T17:47:48.553Z,11.8
2022-11-04T17:53:20.220Z,11.88
2022-11-04T17:58:51.772Z,11.63
2022-11-04T18:04:23.743Z,11.79
2022-11-04T18:09:55.220Z,11.97
2022-11-04T18:15:27.623Z,12.01
2022-11-04T18:20:58.709Z,12.08
2022-11-04T18:26:30.600Z,12.06
2022-11-04T18:32:02.152Z,12.07
2022-11-04T18:37:34.146Z,11.97
2022-11-04T18:43:10.484Z,11.71
2022-11-04T18:48:41.707Z,11.88
2022-11-04T18:54:13.643Z,11.94
2022-11-04T18:59:45.363Z,11.9
2022-11-04T19:05:16.858Z,11.91
2022-11-04T19:11:00.465Z,11.93
2022-11-04T19:16:20.287Z,11.9
2022-11-04T19:21:52.023Z,11.93
2022-11-04T19:27:23.747Z,11.9
2022-11-04T19:32:55.510Z,11.97
2022-11-04T19:38:27.205Z,11.84
2022-11-04T19:44:03.303Z,11.8
2022-11-04T19:49:35.099Z,11.8
2022-11-04T19:55:06.740Z,11.84
2022-11-04T20:00:38.450Z,11.83
2022-11-04T20:06:10.211Z,11.76
2022-11-04T20:11:41.882Z,11.68
2022-11-04T20:17:13.885Z,11.69
2022-11-04T20:22:45.405Z,11.62
2022-11-04T20:28:18.228Z,11.66
2022-11-04T20:33:49.289Z,11.66
2022-11-04T20:39:20.813Z,11.74
2022-11-04T20:44:58.747Z,11.61
2022-11-04T20:50:30.413Z,11.69
2022-11-04T20:56:02.141Z,11.68
2022-11-04T21:01:33.983Z,11.65
2022-11-04T21:07:05.865Z,11.78
2022-11-04T21:12:37.266Z,11.73
2022-11-04T21:18:09.291Z,11.76
2022-11-04T21:23:40.772Z,11.74
2022-11-04T21:29:12.708Z,11.64
2022-11-04T21:34:44.179Z,11.76
2022-11-04T21:40:16.192Z,11.59
2022-11-04T21:45:52.064Z,11.58
2022-11-04T21:51:23.752Z,11.38
2022-11-04T21:56:55.683Z,11.56
2022-11-04T22:02:27.801Z,11.56
2022-11-04T22:07:59.018Z,11.65
2022-11-04T22:13:30.706Z,11.68
2022-11-04T22:19:02.652Z,11.65
2022-11-04T22:24:34.199Z,11.63
2022-11-04T22:30:06.219Z,11.58
2022-11-04T22:35:37.614Z,11.33
2022-11-04T22:41:09.669Z,11.37
2022-11-04T22:46:45.531Z,11.51
2022-11-04T22:52:17.584Z,11.39
2022-11-04T22:57:49.160Z,11.15
2022-11-04T23:03:20.966Z,11.29
2022-11-04T23:08:55.420Z,11.14
2022-11-04T23:14:24.329Z,11.19
2022-11-04T23:19:56.139Z,11.25
2022-11-04T23:25:27.569Z,11.42
2022-11-04T23:30:59.299Z,11.37
2022-11-04T23:36:31.212Z,11.33
2022-11-04T23:42:02.781Z,11.25
2022-11-04T23:47:39.036Z,11.23
2022-11-04T23:53:10.672Z,11.16
2022-11-04T23:58:42.365Z,11.16
